Time;durP1;ratioP1;P1;durP2;ratioP2;P2;SDS_P1;SDS_P2;PMS_P1;PMS_P2;Temp;Humidity;BMP_temperature;BMP_pressure;BME280_temperature;BME280_humidity;BME280_pressure;Samples;Min_cycle;Max_cycle;Signal;HPM_P1;HPM_P2
2021/10/11 00:00:55;;;;;;;;;;;;;;;8.71;100.00;102110.52;1588684;88;21068;-83
2021/10/11 00:03:22;;;;;;;19.87;14.20;;;;;;;8.67;100.00;102112.88;1622764;87;20148;-82
2021/10/11 00:05:50;;;;;;;20.75;13.85;;;;;;;8.64;100.00;102109.11;1605886;88;21084;-83
2021/10/11 00:08:17;;;;;;;22.75;14.35;;;;;;;8.61;100.00;102110.55;1622902;88;21174;-83
2021/10/11 00:10:51;;;;;;;21.85;14.50;;;;;;;8.58;100.00;102104.19;1623016;88;21117;-86
2021/10/11 00:13:16;;;;;;;29.63;13.15;;;;;;;8.57;100.00;102102.48;1622841;88;21565;-86
2021/10/11 00:15:47;;;;;;;22.22;13.38;;;;;;;8.58;100.00;102102.88;1623145;88;21562;-84
2021/10/11 00:18:18;;;;;;;18.45;13.25;;;;;;;8.64;100.00;102102.17;1623090;88;21688;-87
2021/10/11 00:20:48;;;;;;;29.70;13.48;;;;;;;8.73;100.00;102103.98;1622944;88;21951;-83
2021/10/11 00:23:18;;;;;;;20.45;13.28;;;;;;;8.74;100.00;102101.31;1622884;88;21080;-83
2021/10/11 00:25:49;;;;;;;16.73;13.05;;;;;;;8.80;100.00;102096.31;1622880;88;21143;-83
2021/10/11 00:28:16;;;;;;;20.65;13.18;;;;;;;8.82;100.00;102091.43;1622914;88;21111;-83
2021/10/11 00:30:43;;;;;;;19.30;13.40;;;;;;;8.82;100.00;102089.27;1622965;88;21044;-82
2021/10/11 00:33:11;;;;;;;18.37;12.90;;;;;;;8.84;100.00;102090.91;1588897;90;21205;-82
2021/10/11 00:35:39;;;;;;;20.70;13.62;;;;;;;8.82;100.00;102082.34;1568089;90;21099;-83
2021/10/11 00:38:06;;;;;;;16.82;12.73;;;;;;;8.76;100.00;102083.05;1588868;90;21190;-83
2021/10/11 00:40:34;;;;;;;17.20;13.50;;;;;;;8.69;100.00;102074.71;1588872;89;21506;-83
2021/10/11 00:43:01;;;;;;;18.40;12.98;;;;;;;8.62;100.00;102080.61;1588961;90;21489;-84
2021/10/11 00:45:28;;;;;;;19.87;13.62;;;;;;;8.56;100.00;102082.62;1588865;89;21205;-82
2021/10/11 00:47:56;;;;;;;17.95;13.58;;;;;;;8.49;100.00;102082.06;1595309;89;21071;-83
2021/10/11 00:50:24;;;;;;;19.82;13.03;;;;;;;8.40;100.00;102076.77;1639197;87;21123;-82
2021/10/11 00:52:55;;;;;;;;;;;;;;;8.33;100.00;102076.17;1641793;87;21592;-84
2021/10/11 00:55:23;;;;;;;19.62;13.00;;;;;;;8.27;100.00;102073.84;1641604;86;20203;-84
2021/10/11 00:57:50;;;;;;;17.90;12.68;;;;;;;8.23;100.00;102072.73;1630867;86;21161;-82
2021/10/11 01:00:18;;;;;;;18.98;12.00;;;;;;;8.19;100.00;102074.61;1642030;87;21521;-83
2021/10/11 01:02:46;;;;;;;22.65;14.20;;;;;;;8.15;100.00;102072.59;1631000;88;21663;-83
2021/10/11 01:05:14;;;;;;;18.62;13.32;;;;;;;8.14;100.00;102073.97;1641841;86;21095;-82
2021/10/11 01:07:42;;;;;;;21.30;13.53;;;;;;;8.11;100.00;102072.36;1630820;88;21111;-82
2021/10/11 01:10:10;;;;;;;18.05;13.43;;;;;;;8.08;100.00;102067.75;1621180;87;21191;-82
2021/10/11 01:12:39;;;;;;;21.77;13.38;;;;;;;8.03;100.00;102064.05;1642022;87;21040;-83
2021/10/11 01:15:09;;;;;;;22.98;13.32;;;;;;;8.01;100.00;102068.44;1642071;87;21582;-82
2021/10/11 01:17:37;;;;;;;17.20;12.65;;;;;;;7.98;100.00;102065.97;1630922;88;21120;-83
2021/10/11 01:20:06;;;;;;;19.50;14.30;;;;;;;7.97;100.00;102061.70;1621063;87;21619;-82
2021/10/11 01:22:41;;;;;;;20.97;14.25;;;;;;;7.96;100.00;102056.13;1621739;87;21224;-83
2021/10/11 01:25:12;;;;;;;25.08;13.88;;;;;;;7.91;100.00;102051.13;1630607;86;21163;-83
2021/10/11 01:27:41;;;;;;;19.85;13.70;;;;;;;7.87;100.00;102052.14;1642116;86;21083;-81
2021/10/11 01:30:11;;;;;;;18.20;13.50;;;;;;;7.84;100.00;102050.98;1630747;88;21064;-83
2021/10/11 01:32:41;;;;;;;15.70;12.30;;;;;;;7.80;100.00;102046.81;1642297;87;21051;-82
2021/10/11 01:35:09;;;;;;;18.37;12.90;;;;;;;7.76;100.00;102044.80;1630673;88;21181;-82
2021/10/11 01:37:37;;;;;;;20.02;13.15;;;;;;;7.74;100.00;102044.01;1642028;86;21039;-82
2021/10/11 01:40:07;;;;;;;26.97;14.07;;;;;;;7.72;100.00;102045.38;1630653;88;21095;-82
2021/10/11 01:42:36;;;;;;;21.10;14.35;;;;;;;7.69;100.00;102037.71;1598808;87;21075;-83
2021/10/11 01:45:06;;;;;;;21.23;13.00;;;;;;;7.66;100.00;102042.18;1630924;88;21052;-84
2021/10/11 01:47:34;;;;;;;21.52;13.58;;;;;;;7.62;100.00;102032.38;1620516;87;21190;-83
2021/10/11 01:50:04;;;;;;;19.05;13.53;;;;;;;7.59;100.00;102032.53;1642269;87;21524;-82
2021/10/11 01:52:40;;;;;;;21.87;14.38;;;;;;;7.58;100.00;102034.26;1642365;87;21099;-81
2021/10/11 01:55:09;;;;;;;19.37;13.45;;;;;;;7.56;100.00;102036.09;1630840;88;21072;-85
2021/10/11 01:57:37;;;;;;;17.35;13.53;;;;;;;7.53;100.00;102027.13;1642492;87;21556;-84
2021/10/11 02:00:07;;;;;;;21.65;14.43;;;;;;;7.52;100.00;102031.08;1630797;87;21165;-84
2021/10/11 02:02:37;;;;;;;19.32;13.70;;;;;;;7.52;100.00;102031.08;1642180;87;21092;-84
2021/10/11 02:05:07;;;;;;;19.10;13.22;;;;;;;7.49;100.00;102034.61;1642088;87;21088;-84
2021/10/11 02:07:35;;;;;;;19.92;13.25;;;;;;;7.46;100.00;102032.16;1642570;87;21059;-83
2021/10/11 02:10:07;;;;;;;22.67;13.58;;;;;;;7.44;100.00;102035.27;1630839;88;21477;-83
2021/10/11 02:12:35;;;;;;;18.10;12.90;;;;;;;7.41;100.00;102027.63;1642702;87;21847;-84
2021/10/11 02:15:06;;;;;;;17.82;12.50;;;;;;;7.40;100.00;102031.95;1630865;88;21343;-84
2021/10/11 02:17:34;;;;;;;18.48;12.45;;;;;;;7.37;100.00;102027.34;1643511;87;21075;-83
2021/10/11 02:20:04;;;;;;;18.45;13.05;;;;;;;7.36;100.00;102024.34;1630848;88;21108;-83
2021/10/11 02:22:31;;;;;;;22.90;12.82;;;;;;;7.37;100.00;102020.86;1642452;87;21121;-85
2021/10/11 02:24:59;;;;;;;18.17;12.58;;;;;;;7.40;100.00;102024.64;1642044;87;21177;-84
2021/10/11 02:27:26;;;;;;;17.48;12.35;;;;;;;7.47;100.00;102022.19;1630967;88;21096;-83
2021/10/11 02:29:53;;;;;;;19.52;11.93;;;;;;;7.49;100.00;102022.12;1642095;87;21033;-83
2021/10/11 02:32:23;;;;;;;16.55;12.37;;;;;;;7.52;100.00;102020.25;1633746;87;21115;-84
2021/10/11 02:34:51;;;;;;;19.32;12.33;;;;;;;7.53;100.00;102025.00;1642134;87;21619;-83
2021/10/11 02:37:18;;;;;;;14.98;11.83;;;;;;;7.56;100.00;102019.67;1631074;88;21161;-84
2021/10/11 02:39:46;;;;;;;21.57;12.20;;;;;;;7.60;100.00;102019.95;1642272;87;21092;-82
2021/10/11 02:42:13;;;;;;;21.23;11.53;;;;;;;7.65;100.00;102017.19;1630866;88;21597;-84
2021/10/11 02:44:42;;;;;;;19.37;11.50;;;;;;;7.67;100.00;102013.62;1621316;87;20992;-83
2021/10/11 02:47:10;;;;;;;23.98;12.35;;;;;;;7.68;100.00;102010.13;1609488;88;21667;-84
2021/10/11 02:49:39;;;;;;;18.30;12.03;;;;;;;7.64;100.00;102007.71;1588750;89;21186;-83
2021/10/11 02:52:06;;;;;;;15.75;11.40;;;;;;;7.66;100.00;102008.47;1606943;88;21071;-83
2021/10/11 02:54:33;;;;;;;20.02;11.90;;;;;;;7.64;100.00;102002.53;1587678;90;21166;-83
2021/10/11 02:57:05;;;;;;;21.77;11.80;;;;;;;7.66;100.00;101999.39;1625291;86;21131;-84
2021/10/11 02:59:33;;;;;;;16.52;11.38;;;;;;;7.69;100.00;101996.22;1604314;89;21058;-83
2021/10/11 03:02:02;;;;;;;16.50;10.98;;;;;;;7.66;100.00;101997.67;1619179;87;21837;-83
2021/10/11 03:04:30;;;;;;;16.65;11.20;;;;;;;7.60;100.00;101991.44;1619906;86;21137;-83
2021/10/11 03:06:58;;;;;;;17.62;11.22;;;;;;;7.53;100.00;101994.72;1669372;85;21094;-85
2021/10/11 03:09:25;;;;;;;16.90;11.53;;;;;;;7.46;100.00;101997.17;1648192;86;21128;-84
2021/10/11 03:11:54;;;;;;;17.62;11.93;;;;;;;7.41;100.00;101989.58;1627096;87;21104;-83
2021/10/11 03:14:22;;;;;;;16.55;11.70;;;;;;;7.34;100.00;101993.75;1625067;86;21808;-84
2021/10/11 03:16:50;;;;;;;20.52;11.80;;;;;;;7.30;100.00;101992.20;1630033;88;21058;-85
2021/10/11 03:19:19;;;;;;;19.42;11.33;;;;;;;7.27;100.00;101984.11;1617294;87;21088;-85
2021/10/11 03:21:46;;;;;;;16.97;11.20;;;;;;;7.21;100.00;101976.11;1590273;89;21121;-85
2021/10/11 03:24:14;;;;;;;16.17;11.38;;;;;;;7.18;100.00;101974.92;1604404;89;21108;-86
2021/10/11 03:26:41;;;;;;;24.70;12.65;;;;;;;7.16;100.00;101970.72;1604354;89;21413;-85
2021/10/11 03:29:09;;;;;;;16.27;11.73;;;;;;;7.09;100.00;101970.13;1604268;89;21171;-84
2021/10/11 03:31:36;;;;;;;18.15;12.60;;;;;;;7.01;100.00;101969.58;1586586;89;21108;-85
2021/10/11 03:34:06;;;;;;;22.45;12.28;;;;;;;6.89;100.00;101968.30;1604616;89;21064;-86
2021/10/11 03:36:34;;;;;;;20.82;12.03;;;;;;;6.79;100.00;101965.20;1601787;89;21143;-85
2021/10/11 03:39:02;;;;;;;16.75;12.53;;;;;;;6.71;100.00;101960.75;1604564;89;21813;-86
2021/10/11 03:41:30;;;;;;;27.58;13.62;;;;;;;6.63;100.00;101956.71;1604586;89;21151;-85
2021/10/11 03:43:58;;;;;;;23.77;12.10;;;;;;;6.54;100.00;101953.62;1604636;89;21063;-86
2021/10/11 03:46:25;;;;;;;29.07;12.33;;;;;;;6.53;100.00;101965.70;1604503;89;21056;-85
2021/10/11 03:48:52;;;;;;;20.82;11.83;;;;;;;6.70;100.00;101968.13;1604502;89;21051;-86
2021/10/11 03:51:21;;;;;;;18.37;11.90;;;;;;;6.86;100.00;101960.17;1604383;88;21687;-84
2021/10/11 03:53:49;;;;;;;20.05;11.93;;;;;;;6.96;100.00;101967.16;1604283;89;21653;-85
2021/10/11 03:56:17;;;;;;;18.87;11.45;;;;;;;7.01;100.00;101969.58;1586159;89;21774;-85
2021/10/11 03:58:45;;;;;;;20.35;11.40;;;;;;;7.05;100.00;101972.43;1604358;89;21538;-84
2021/10/11 04:01:12;;;;;;;27.40;12.07;;;;;;;7.05;100.00;101968.55;1607322;88;21052;-85
2021/10/11 04:03:40;;;;;;;21.97;12.03;;;;;;;7.14;100.00;101964.31;1604632;89;21216;-85
2021/10/11 04:06:07;;;;;;;22.93;15.23;;;;;;;7.32;100.00;101968.38;1615165;87;21117;-85
2021/10/11 04:08:39;;;;;;;21.50;14.03;;;;;;;7.47;100.00;101965.17;1624435;88;21059;-84
2021/10/11 04:11:21;;;;;;;23.57;13.95;;;;;;;7.48;100.00;101963.41;1650956;86;21656;-85
2021/10/11 04:13:40;;;;;;;16.30;12.88;;;;;;;7.37;100.00;101958.66;1633151;86;21128;-83
2021/10/11 04:16:07;;;;;;;17.95;11.53;;;;;;;7.33;100.00;101955.35;1651007;86;21167;-84
2021/10/11 04:18:35;;;;;;;17.27;12.45;;;;;;;7.33;100.00;101957.95;1650750;86;21092;-89
2021/10/11 04:21:02;;;;;;;17.57;11.97;;;;;;;7.36;100.00;101956.97;1650949;86;21587;-88
2021/10/11 04:23:30;;;;;;;18.67;12.53;;;;;;;7.33;100.00;101954.52;1607336;88;21019;-86
2021/10/11 04:25:58;;;;;;;17.17;11.50;;;;;;;7.26;100.00;101949.56;1624443;88;21079;-89
2021/10/11 04:28:25;;;;;;;31.52;12.75;;;;;;;7.22;100.00;101952.33;1650953;86;21123;-89
2021/10/11 04:30:53;;;;;;;17.50;12.40;;;;;;;7.19;100.00;101949.41;1650831;86;21092;-90
2021/10/11 04:33:22;;;;;;;19.73;11.80;;;;;;;7.17;100.00;101950.39;1624272;87;21134;-90
2021/10/11 04:35:50;;;;;;;15.63;11.65;;;;;;;7.12;100.00;101944.55;1624795;87;21091;-89
2021/10/11 04:38:17;;;;;;;19.02;11.97;;;;;;;7.05;100.00;101945.23;1624482;88;22110;-91
2021/10/11 04:40:45;;;;;;;16.90;11.35;;;;;;;6.97;100.00;101945.52;1624492;87;21180;-89
2021/10/11 04:43:12;;;;;;;18.92;12.35;;;;;;;6.92;100.00;101944.86;1624450;88;21018;-93
2021/10/11 04:45:40;;;;;;;15.18;11.65;;;;;;;6.84;100.00;101941.29;1607243;88;21692;-93
2021/10/11 04:48:13;;;;;;;18.50;12.20;;;;;;;6.77;100.00;101938.55;1635163;86;21078;-92
2021/10/11 04:50:41;;;;;;;19.57;12.47;;;;;;;6.70;100.00;101940.94;1655681;85;21022;-90
2021/10/11 04:53:09;;;;;;;18.23;12.43;;;;;;;6.63;100.00;101936.47;1647091;85;21234;-89
2021/10/11 04:55:38;;;;;;;16.25;12.23;;;;;;;6.63;100.00;101942.94;1649043;86;21034;-90
2021/10/11 04:58:05;;;;;;;26.00;13.43;;;;;;;6.66;100.00;101943.27;1591478;89;21561;-90
2021/10/11 05:00:34;;;;;;;20.12;13.88;;;;;;;6.72;100.00;101943.03;1595606;88;21071;-89
2021/10/11 05:03:02;;;;;;;28.85;15.43;;;;;;;6.77;100.00;101929.02;1617798;88;21154;-90
2021/10/11 05:05:32;;;;;;;25.37;15.15;;;;;;;6.80;100.00;101926.76;1616570;88;21203;-89
2021/10/11 05:08:01;;;;;;;18.52;13.85;;;;;;;6.79;100.00;101928.52;1596571;88;21063;-89
2021/10/11 05:10:29;;;;;;;24.52;14.90;;;;;;;6.81;100.00;101928.45;1582990;89;21632;-89
2021/10/11 05:12:57;;;;;;;23.52;13.98;;;;;;;6.81;100.00;101927.16;1620933;87;21152;-90
2021/10/11 05:15:24;;;;;;;21.00;14.35;;;;;;;6.82;100.00;101929.28;1568110;91;21739;-93
2021/10/11 05:17:51;;;;;;;19.52;13.98;;;;;;;6.83;100.00;101928.37;1589509;89;21868;-92
2021/10/11 05:20:18;;;;;;;22.17;14.13;;;;;;;6.83;100.00;101928.37;1567531;91;21142;-92
2021/10/11 05:22:46;;;;;;;19.73;13.98;;;;;;;6.84;100.00;101931.36;1568602;89;21128;-93
2021/10/11 05:25:13;;;;;;;28.02;14.70;;;;;;;6.84;100.00;101925.75;1566623;91;21571;-89
2021/10/11 05:27:41;;;;;;;22.62;14.63;;;;;;;6.85;100.00;101926.12;1614631;88;21115;-90
2021/10/11 05:30:10;;;;;;;22.07;15.28;;;;;;;6.86;100.00;101926.52;1614249;88;22006;-90
2021/10/11 05:32:37;;;;;;;25.00;15.45;;;;;;;6.90;100.00;101925.52;1595966;88;21121;-88
2021/10/11 05:35:06;;;;;;;21.50;14.50;;;;;;;6.95;100.00;101918.86;1614230;88;21157;-90
2021/10/11 05:37:39;;;;;;;24.50;15.93;;;;;;;7.00;100.00;101914.80;1640669;86;21024;-89
2021/10/11 05:40:09;;;;;;;19.87;14.70;;;;;;;7.09;100.00;101920.45;1674583;85;21110;-89
2021/10/11 05:42:36;;;;;;;23.05;15.78;;;;;;;7.16;100.00;101921.06;1653186;85;21834;-90
2021/10/11 05:45:05;;;;;;;20.68;13.90;;;;;;;7.21;100.00;101919.58;1674451;85;21035;-89
2021/10/11 05:47:33;;;;;;;21.45;14.63;;;;;;;7.27;100.00;101924.52;1651978;85;21000;-91
2021/10/11 05:50:01;;;;;;;24.35;14.47;;;;;;;7.34;100.00;101922.50;1642756;85;21152;-89
2021/10/11 05:52:29;;;;;;;19.80;13.88;;;;;;;7.41;100.00;101920.07;1623615;87;21149;-89
2021/10/11 05:54:56;;;;;;;22.82;14.85;;;;;;;7.48;100.00;101927.98;1658066;86;21216;-89
2021/10/11 05:57:23;;;;;;;24.47;15.45;;;;;;;7.53;100.00;101926.03;1662370;86;21019;-89
2021/10/11 05:59:50;;;;;;;26.55;16.57;;;;;;;7.60;100.00;101928.36;1650753;86;22080;-89
2021/10/11 06:02:25;;;;;;;27.20;16.67;;;;;;;7.65;100.00;101929.03;1662547;86;21113;-88
2021/10/11 06:04:53;;;;;;;24.95;15.35;;;;;;;7.71;100.00;101927.47;1651126;86;21015;-90
2021/10/11 06:07:21;;;;;;;26.60;16.15;;;;;;;7.79;100.00;101927.99;1662598;86;21130;-90
2021/10/11 06:09:49;;;;;;;25.77;16.10;;;;;;;7.86;100.00;101921.63;1645443;86;21157;-87
2021/10/11 06:12:16;;;;;;;24.02;15.28;;;;;;;7.95;100.00;101924.74;1621191;87;21573;-89
2021/10/11 06:14:43;;;;;;;24.63;15.25;;;;;;;8.02;100.00;101919.67;1639357;87;21042;-89
2021/10/11 06:17:10;;;;;;;25.20;14.40;;;;;;;8.10;100.00;101918.02;1610768;88;21034;-89
2021/10/11 06:19:37;;;;;;;25.37;14.98;;;;;;;8.17;100.00;101915.11;1611097;89;21164;-88
2021/10/11 06:22:05;;;;;;;24.27;14.78;;;;;;;8.25;100.00;101917.38;1610944;89;21160;-89
2021/10/11 06:24:32;;;;;;;31.17;14.50;;;;;;;8.34;100.00;101914.81;1611023;89;21085;-88
2021/10/11 06:26:59;;;;;;;57.03;16.67;;;;;;;8.42;100.00;101910.12;1610492;88;21660;-88
2021/10/11 06:29:26;;;;;;;44.95;16.73;;;;;;;8.50;100.00;101914.98;1611129;88;21093;-90
2021/10/11 06:31:53;;;;;;;28.42;15.25;;;;;;;8.59;100.00;101915.03;1610787;88;21159;-90
2021/10/11 06:34:21;;;;;;;28.90;14.78;;;;;;;8.68;100.00;101914.61;1610983;89;21598;-89
2021/10/11 06:36:49;;;;;;;22.93;14.30;;;;;;;8.78;100.00;101913.25;1610848;89;21093;-90
2021/10/11 06:39:16;;;;;;;24.77;15.10;;;;;;;8.89;100.00;101905.41;1611073;89;21100;-89
2021/10/11 06:41:44;;;;;;;22.87;14.78;;;;;;;9.00;100.00;101905.76;1610988;88;20994;-88
2021/10/11 06:44:11;;;;;;;20.43;14.90;;;;;;;9.12;100.00;101900.42;1611050;88;21156;-89
2021/10/11 06:46:38;;;;;;;20.62;14.25;;;;;;;9.22;100.00;101900.34;1610967;88;21096;-87
2021/10/11 06:49:05;;;;;;;19.67;14.07;;;;;;;9.34;100.00;101896.77;1610634;89;21081;-89
2021/10/11 06:51:33;;;;;;;24.35;15.25;;;;;;;9.44;100.00;101906.62;1584009;90;21585;-87
2021/10/11 06:54:00;;;;;;;23.20;14.65;;;;;;;9.55;100.00;101902.66;1566727;90;21112;-88
2021/10/11 06:56:27;;;;;;;23.85;14.83;;;;;;;9.64;100.00;101897.00;1614425;88;21233;-88
2021/10/11 06:58:54;;;;;;;21.80;14.55;;;;;;;9.75;100.00;101899.88;1614611;88;21014;-89
2021/10/11 07:01:21;;;;;;;21.70;14.95;;;;;;;9.83;97.92;101891.69;1614268;88;21133;-89
2021/10/11 07:03:48;;;;;;;23.52;14.40;;;;;;;9.93;98.58;101891.58;1614568;88;21111;-89
2021/10/11 07:06:19;;;;;;;26.55;15.00;;;;;;;10.02;90.29;101888.11;1614359;88;21198;-86
2021/10/11 07:08:44;;;;;;;21.65;14.93;;;;;;;10.10;92.37;101884.20;1611617;88;21181;-89
2021/10/11 07:11:12;;;;;;;25.23;16.80;;;;;;;10.19;91.65;101880.26;1614411;88;21655;-88
2021/10/11 07:13:39;;;;;;;27.48;18.42;;;;;;;10.28;86.26;101881.99;1614371;88;21129;-88
2021/10/11 07:16:08;;;;;;;26.15;17.50;;;;;;;10.34;84.05;101876.45;1614117;88;21742;-87
2021/10/11 07:18:38;;;;;;;27.00;18.73;;;;;;;10.42;82.63;101874.30;1614468;88;21415;-91
2021/10/11 07:21:07;;;;;;;37.80;22.25;;;;;;;10.48;76.99;101864.02;1614476;88;21233;-88
2021/10/11 07:23:36;;;;;;;40.00;23.85;;;;;;;10.53;79.43;101864.15;1614460;88;21137;-88
2021/10/11 07:26:07;;;;;;;41.37;23.07;;;;;;;10.61;76.43;101855.06;1614404;88;21042;-89
2021/10/11 07:28:35;;;;;;;25.32;16.75;;;;;;;10.67;76.89;101849.06;1614416;88;21022;-87
2021/10/11 07:31:03;;;;;;;30.02;16.45;;;;;;;10.78;76.88;101846.30;1614513;88;21515;-87
2021/10/11 07:33:31;;;;;;;28.98;19.15;;;;;;;10.89;74.42;101853.05;1614235;88;21221;-87
2021/10/11 07:35:58;;;;;;;29.25;16.97;;;;;;;11.00;73.62;101848.09;1614389;88;21043;-89
2021/10/11 07:38:25;;;;;;;26.55;16.55;;;;;;;11.11;73.41;101844.00;1614415;88;21010;-88
2021/10/11 07:40:53;;;;;;;27.95;17.15;;;;;;;11.20;70.83;101842.16;1614221;88;21049;-88
2021/10/11 07:43:20;;;;;;;30.40;16.45;;;;;;;11.28;69.71;101841.73;1614634;88;21137;-88
2021/10/11 07:45:47;;;;;;;24.20;16.65;;;;;;;11.36;67.87;101838.20;1614503;88;21175;-89
2021/10/11 07:48:15;;;;;;;22.13;14.90;;;;;;;11.45;68.05;101838.12;1614297;88;21141;-87
2021/10/11 07:50:42;;;;;;;22.52;14.47;;;;;;;11.50;62.10;101834.31;1614619;88;21176;-88
2021/10/11 07:53:09;;;;;;;21.55;15.75;;;;;;;11.56;61.38;101832.25;1595966;88;21610;-87
2021/10/11 07:55:36;;;;;;;25.97;16.40;;;;;;;11.59;59.14;101831.61;1614732;88;21081;-88
2021/10/11 07:58:03;;;;;;;20.40;15.15;;;;;;;11.61;57.88;101827.63;1614314;88;21539;-86
2021/10/11 08:00:32;;;;;;;23.73;16.00;;;;;;;11.63;58.40;101826.59;1614501;88;21022;-88
2021/10/11 08:02:59;;;;;;;27.77;17.40;;;;;;;11.66;58.98;101825.08;1614614;88;21650;-87
2021/10/11 08:05:26;;;;;;;25.12;16.77;;;;;;;11.71;60.78;101825.28;1614722;88;21538;-88
2021/10/11 08:07:53;;;;;;;23.77;16.30;;;;;;;11.76;60.41;101829.30;1614431;88;21045;-87
2021/10/11 08:10:20;;;;;;;23.52;16.50;;;;;;;11.80;57.54;101831.25;1614743;88;21850;-88
2021/10/11 08:12:48;;;;;;;29.45;16.67;;;;;;;11.84;57.46;101831.42;1614379;88;21050;-88
2021/10/11 08:15:17;;;;;;;33.20;15.32;;;;;;;11.85;56.91;101822.67;1614504;88;21077;-88
2021/10/11 08:17:49;;;;;;;24.18;15.28;;;;;;;11.87;56.56;101822.11;1628035;86;21061;-91
2021/10/11 08:20:19;;;;;;;24.75;15.48;;;;;;;11.89;55.84;101822.86;1630315;86;21117;-88
2021/10/11 08:22:47;;;;;;;25.95;16.17;;;;;;;11.93;56.48;101828.25;1640118;86;21099;-88
2021/10/11 08:25:16;;;;;;;23.45;15.30;;;;;;;11.97;57.19;101820.66;1621816;87;21181;-88
2021/10/11 08:27:44;;;;;;;28.83;17.07;;;;;;;12.03;57.50;101824.62;1624134;87;21065;-88
2021/10/11 08:30:12;;;;;;;26.30;15.93;;;;;;;12.08;56.69;101821.29;1614691;88;21559;-88
2021/10/11 08:32:40;;;;;;;31.77;16.05;;;;;;;12.14;56.36;101830.03;1614635;88;21085;-88
2021/10/11 08:35:08;;;;;;;28.67;15.13;;;;;;;12.18;55.69;101824.63;1614756;88;21173;-87
2021/10/11 08:37:39;;;;;;;29.30;15.68;;;;;;;12.23;56.13;101829.09;1615326;87;21594;-89
2021/10/11 08:40:08;;;;;;;27.15;16.87;;;;;;;12.24;54.35;101821.15;1623315;87;21104;-88
2021/10/11 08:42:41;;;;;;;29.85;15.28;;;;;;;12.24;55.22;101820.33;1627782;87;21109;-90
2021/10/11 08:45:11;;;;;;;34.40;16.65;;;;;;;12.28;55.57;101821.34;1618350;87;21096;-90
2021/10/11 08:47:39;;;;;;;27.10;15.80;;;;;;;12.31;54.76;101819.00;1614346;87;21124;-85
2021/10/11 08:50:22;;;;;;;27.55;16.07;;;;;;;12.31;55.27;101813.30;1635078;86;21082;-88
2021/10/11 08:52:54;;;;;;;31.52;16.70;;;;;;;12.33;55.60;101808.45;1591557;90;21028;-88
2021/10/11 08:55:25;;;;;;;29.35;15.15;;;;;;;12.35;53.71;101809.20;1636293;86;21113;-89
2021/10/11 08:58:04;;;;;;;32.30;17.23;;;;;;;12.35;53.54;101803.97;1642131;87;21079;-88
2021/10/11 09:00:35;;;;;;;29.85;16.65;;;;;;;12.38;54.87;101797.26;1642315;87;21206;-88
2021/10/11 09:03:05;;;;;;;30.75;17.70;;;;;;;12.43;55.03;101797.79;1571093;91;21072;-89
2021/10/11 09:05:40;;;;;;;29.20;18.05;;;;;;;12.46;54.00;101792.34;1571292;91;21111;-88
2021/10/11 09:08:16;;;;;;;31.12;17.40;;;;;;;12.48;53.41;101790.48;1582220;89;21090;-88
2021/10/11 09:10:59;;;;;;;27.50;17.07;;;;;;;12.50;53.27;101786.00;1572530;89;21104;-88
2021/10/11 09:13:40;;;;;;;34.00;19.07;;;;;;;12.50;53.48;101779.95;1637196;86;21190;-89
2021/10/11 09:16:41;;;;;;;24.45;15.30;;;;;;;12.51;52.17;101776.37;1570041;90;28665;-88
2021/10/11 09:19:20;;;;;;;26.07;17.42;;;;;;;12.53;51.88;101774.52;1635811;87;21889;-88
2021/10/11 09:21:54;;;;;;;27.75;16.67;;;;;;;12.54;52.28;101769.17;1643575;87;21078;-89
2021/10/11 09:24:22;;;;;;;22.70;15.75;;;;;;;12.57;51.62;101770.30;1631437;86;21116;-87
2021/10/11 09:27:00;;;;;;;24.77;16.45;;;;;;;12.61;52.63;101765.25;1645598;86;21169;-88
2021/10/11 09:29:36;;;;;;;24.52;14.73;;;;;;;12.65;51.55;101767.64;1617847;88;21058;-88
2021/10/11 09:32:47;;;;;;;19.67;13.53;;;;;;;12.67;51.05;101760.55;1622769;87;22298;-88
2021/10/11 09:35:22;;;;;;;20.45;12.88;;;;;;;12.72;50.68;101757.16;1642025;86;21040;-89
2021/10/11 09:37:52;;;;;;;17.37;11.75;;;;;;;12.78;52.28;101756.73;1621632;87;21862;-87
2021/10/11 09:40:22;;;;;;;16.60;11.57;;;;;;;12.82;52.63;101743.85;1645614;86;21897;-87
2021/10/11 09:42:52;;;;;;;18.52;13.55;;;;;;;12.89;53.26;101742.98;1645060;87;21085;-91
2021/10/11 09:45:24;;;;;;;24.80;13.25;;;;;;;12.96;52.94;101739.02;1642627;87;21123;-88
2021/10/11 09:47:53;;;;;;;19.30;12.93;;;;;;;13.04;52.78;101741.09;1596069;89;21099;-87
2021/10/11 09:50:22;;;;;;;17.45;12.58;;;;;;;13.07;52.96;101738.28;1623629;86;21055;-86
2021/10/11 09:52:53;;;;;;;16.00;11.38;;;;;;;13.07;51.91;101735.18;1610072;88;21182;-87
2021/10/11 09:55:21;;;;;;;15.03;11.43;;;;;;;13.07;52.85;101726.03;1620607;88;21158;-87
2021/10/11 09:57:58;;;;;;;19.90;11.22;;;;;;;13.08;51.99;101724.27;1625309;87;21700;-87
2021/10/11 10:00:28;;;;;;;21.27;12.03;;;;;;;13.08;51.82;101724.27;1628332;88;21182;-88
2021/10/11 10:02:56;;;;;;;19.20;10.15;;;;;;;13.06;50.45;101717.81;1587720;90;21139;-88
2021/10/11 10:05:36;;;;;;;17.80;10.32;;;;;;;13.07;50.69;101714.75;1625182;88;21184;-88
2021/10/11 10:08:18;;;;;;;16.42;10.03;;;;;;;13.10;50.56;101713.21;1584303;90;21068;-88
2021/10/11 10:10:48;;;;;;;14.78;9.18;;;;;;;13.14;50.72;101706.84;1593226;89;21083;-85
2021/10/11 10:13:20;;;;;;;13.60;8.80;;;;;;;13.18;49.07;101699.14;1620615;88;21040;-89
2021/10/11 10:15:48;;;;;;;14.73;8.93;;;;;;;13.23;49.33;101700.12;1611838;88;21107;-87
2021/10/11 10:18:20;;;;;;;12.73;8.33;;;;;;;13.29;49.46;101697.11;1624258;88;21209;-89
2021/10/11 10:20:59;;;;;;;10.80;8.05;;;;;;;13.37;49.42;101690.87;1610896;89;21076;-87
2021/10/11 10:23:30;;;;;;;12.82;8.88;;;;;;;13.49;49.96;101683.12;1643202;87;21032;-86
2021/10/11 10:26:07;;;;;;;15.63;8.60;;;;;;;13.62;49.40;101685.23;1643679;87;21673;-87
2021/10/11 10:28:51;;;;;;;16.10;7.67;;;;;;;13.76;48.83;101677.70;1643392;87;21567;-89
2021/10/11 10:31:36;;;;;;;14.93;7.92;;;;;;;13.91;48.27;101673.61;1636739;86;21149;-88
2021/10/11 10:34:18;;;;;;;15.75;8.00;;;;;;;14.07;48.51;101674.16;1588375;88;21204;-88
2021/10/11 10:37:05;;;;;;;13.88;8.13;;;;;;;14.28;46.73;101661.27;1616238;88;21046;-87
2021/10/11 10:39:52;;;;;;;13.85;7.83;;;;;;;14.44;46.01;101658.36;1538301;91;21086;-87
2021/10/11 10:42:26;;;;;;;15.00;7.47;;;;;;;14.54;46.34;101655.05;1586258;89;21068;-87
2021/10/11 10:44:58;;;;;;;15.78;7.42;;;;;;;14.55;46.22;101652.76;1607242;87;21939;-88
2021/10/11 10:47:43;;;;;;;13.40;8.30;;;;;;;14.50;46.51;101650.52;1623260;87;21090;-86
2021/10/11 10:50:20;;;;;;;10.55;8.23;;;;;;;14.54;46.94;101644.56;1638598;86;21038;-87
2021/10/11 10:52:58;;;;;;;10.68;7.62;;;;;;;14.63;48.04;101649.08;1611449;88;21077;-89
2021/10/11 10:55:27;;;;;;;17.35;7.67;;;;;;;14.76;46.99;101645.94;1620755;87;21082;-87
2021/10/11 10:58:02;;;;;;;15.10;7.50;;;;;;;14.85;46.32;101638.31;1640438;87;21711;-86
2021/10/11 11:00:30;;;;;;;13.35;8.23;;;;;;;14.88;46.75;101636.75;1642278;86;22069;-87
2021/10/11 11:02:57;;;;;;;13.25;8.05;;;;;;;14.87;45.50;101632.45;1642324;87;21703;-89
2021/10/11 11:05:30;;;;;;;13.98;7.92;;;;;;;14.84;46.24;101628.28;1644397;86;21549;-88
2021/10/11 11:07:59;;;;;;;14.38;8.23;;;;;;;14.81;45.89;101622.81;1570863;88;21161;-87
2021/10/11 11:10:33;;;;;;;11.28;7.83;;;;;;;14.76;45.78;101633.28;1574047;91;21177;-88
2021/10/11 11:13:08;;;;;;;13.05;7.78;;;;;;;14.65;45.65;101624.45;1590169;89;21120;-91
2021/10/11 11:15:41;;;;;;;10.78;8.10;;;;;;;14.55;45.62;101626.09;1573613;91;21078;-88
2021/10/11 11:18:18;;;;;;;14.83;8.75;;;;;;;14.49;46.86;101622.14;1598942;88;21060;-90
2021/10/11 11:20:54;;;;;;;11.05;8.50;;;;;;;14.45;47.25;101620.73;1617290;87;21486;-90
2021/10/11 11:23:25;;;;;;;17.60;9.38;;;;;;;14.43;47.59;101613.91;1642221;86;22211;-88